RJNF(METAR)
04/28 16:00
RJNF 280700Z 25004KT 9999 FEWXXX 20/M00 Q1005 RMK A2970=
戻る
トップページへ戻る
IMOC Co,.Ltd.